Time;durP1;ratioP1;P1;durP2;ratioP2;P2;SDS_P1;SDS_P2;PMS_P1;PMS_P2;Temp;Humidity;BMP_temperature;BMP_pressure;BME280_temperature;BME280_humidity;BME280_pressure;Samples;Min_cycle;Max_cycle;Signal;HPM_P1;HPM_P2
2022/03/23 00:00:25;;;;;;;2.97;2.77;;;5.30;52.90;4.50;99509.00;;;;5116669;28;20194;-72
2022/03/23 00:02:51;;;;;;;3.33;3.13;;;5.20;52.90;4.20;99521.00;;;;5116269;28;20626;-74
2022/03/23 00:05:20;;;;;;;4.80;3.27;;;5.10;52.70;4.40;99509.00;;;;5116385;28;20229;-72
2022/03/23 00:07:46;;;;;;;4.20;3.90;;;5.10;52.70;4.40;99509.00;;;;5098607;28;20282;-72
2022/03/23 00:10:13;;;;;;;5.90;2.67;;;5.10;52.90;4.60;99505.00;;;;5116191;28;20206;-72
2022/03/23 00:12:42;;;;;;;2.57;2.37;;;5.20;53.40;4.50;99508.00;;;;5116379;28;20222;-73
2022/03/23 00:15:09;;;;;;;3.37;3.07;;;;;4.40;99504.00;;;;5116046;28;20222;-72
2022/03/23 00:17:36;;;;;;;3.53;3.30;;;5.10;51.90;4.40;99503.00;;;;5116096;28;20356;-73
2022/03/23 00:20:04;;;;;;;4.17;3.73;;;5.00;52.30;4.30;99514.00;;;;5097967;28;20204;-73
2022/03/23 00:22:33;;;;;;;3.50;3.20;;;5.00;52.20;4.30;99505.00;;;;5116180;28;20186;-72
2022/03/23 00:25:02;;;;;;;2.03;1.93;;;5.00;52.00;4.20;99495.00;;;;5115950;28;20286;-72
2022/03/23 00:27:29;;;;;;;1.83;1.73;;;4.90;52.30;4.20;99503.00;;;;5097724;28;20363;-72
2022/03/23 00:29:56;;;;;;;5.00;2.67;;;4.90;52.60;4.10;99509.00;;;;5115975;28;20208;-73
2022/03/23 00:32:22;;;;;;;4.60;3.33;;;4.90;52.30;4.20;99502.00;;;;5115875;28;20226;-74
2022/03/23 00:34:49;;;;;;;5.53;2.60;;;4.90;52.20;4.20;99517.00;;;;5115940;28;20605;-72
2022/03/23 00:37:16;;;;;;;3.47;3.17;;;4.90;52.50;4.00;99513.00;;;;5115933;28;20205;-72
2022/03/23 00:39:46;;;;;;;3.00;2.73;;;4.80;52.90;4.00;99519.00;;;;5115993;28;20259;-73
2022/03/23 00:42:12;;;;;;;2.10;2.00;;;4.80;53.00;4.10;99503.00;;;;5115594;28;20656;-72
2022/03/23 00:44:39;;;;;;;3.30;2.70;;;4.80;53.10;3.80;99511.00;;;;5115621;28;20225;-73
2022/03/23 00:47:06;;;;;;;3.67;3.13;;;4.70;52.80;3.90;99514.00;;;;5115713;28;20234;-72
2022/03/23 00:54:44;;;;;;;2.33;2.13;;;4.80;52.80;4.00;99515.00;;;;5014006;28;20236;-71
2022/03/23 00:57:10;;;;;;;4.13;3.53;;;4.70;53.50;4.10;99503.00;;;;5015241;28;20326;-71
2022/03/23 00:59:40;;;;;;;3.20;2.90;;;4.80;53.60;3.80;99516.00;;;;5015618;28;20216;-71
2022/03/23 01:02:07;;;;;;;1.17;1.17;;;4.60;53.10;4.00;99515.00;;;;5015439;28;20256;-73
2022/03/23 01:04:34;;;;;;;2.27;2.13;;;4.70;53.50;4.00;99510.00;;;;5015208;28;20525;-71
2022/03/23 01:07:00;;;;;;;1.53;1.43;;;4.70;54.10;4.00;99503.00;;;;5015272;28;20240;-71
2022/03/23 01:09:27;;;;;;;2.80;2.60;;;4.70;54.30;3.80;99504.00;;;;5015078;28;20288;-71
2022/03/23 01:11:55;;;;;;;3.40;3.10;;;4.60;54.50;3.90;99511.00;;;;5014925;28;20681;-71
2022/03/23 01:14:24;;;;;;;1.87;1.70;;;4.60;54.70;3.80;99501.00;;;;5015255;28;20674;-71
2022/03/23 01:16:52;;;;;;;3.43;2.67;;;4.60;54.60;3.70;99510.00;;;;5014956;28;20229;-71
2022/03/23 01:19:22;;;;;;;2.97;2.37;;;4.40;55.20;3.60;99518.00;;;;5015127;28;20245;-71
2022/03/23 01:24:24;;;;;;;2.17;2.07;;;4.40;55.60;3.80;99503.00;;;;5602282;22;20227;-71
2022/03/23 01:26:51;;;;;;;2.70;2.50;;;4.40;55.10;3.50;99503.00;;;;5054618;28;20673;-72
2022/03/23 01:29:20;;;;;;;2.73;2.53;;;4.40;54.70;3.40;99507.00;;;;5054774;28;20220;-73
2022/03/23 01:31:47;;;;;;;4.97;4.47;;;4.30;55.90;3.40;99506.00;;;;5054464;28;20192;-73
2022/03/23 01:34:14;;;;;;;4.27;3.97;;;4.20;55.70;3.50;99507.00;;;;5054373;28;20251;-72
2022/03/23 01:36:40;;;;;;;2.83;2.60;;;4.20;56.00;3.40;99500.00;;;;5054288;28;20250;-72
2022/03/23 01:39:07;;;;;;;2.40;2.27;;;4.20;55.90;3.40;99502.00;;;;5053336;28;20234;-72
2022/03/23 01:41:35;;;;;;;1.63;1.57;;;4.20;56.10;3.50;99491.00;;;;5036750;28;20497;-71
2022/03/23 01:44:10;;;;;;;3.70;3.37;;;4.20;56.10;3.50;99490.00;;;;5054065;28;20689;-71
2022/03/23 01:46:37;;;;;;;2.17;2.07;;;4.20;55.80;3.60;99488.00;;;;5054468;28;20207;-71
2022/03/23 01:49:03;;;;;;;13.10;4.37;;;4.20;56.30;3.40;99468.00;;;;5054150;28;20302;-71
2022/03/23 01:51:30;;;;;;;2.50;2.30;;;4.20;56.00;3.40;99473.00;;;;5036896;28;20651;-71
2022/03/23 01:53:57;;;;;;;3.70;3.43;;;4.20;56.30;3.50;99482.00;;;;5054099;28;20435;-71
2022/03/23 01:56:24;;;;;;;3.23;3.03;;;4.20;55.40;3.40;99484.00;;;;5054142;28;20224;-71
2022/03/23 01:58:51;;;;;;;2.80;2.07;;;4.10;55.20;3.30;99483.00;;;;5054005;28;20700;-71
2022/03/23 02:01:19;;;;;;;3.30;2.70;;;4.10;54.90;3.20;99486.00;;;;5053865;28;20311;-71
2022/03/23 02:03:45;;;;;;;2.83;2.07;;;4.00;55.10;3.20;99491.00;;;;5054053;28;20228;-71
2022/03/23 02:06:12;;;;;;;2.20;2.00;;;4.00;55.60;3.20;99494.00;;;;5054112;28;20643;-71
2022/03/23 02:08:39;;;;;;;4.93;3.97;;;3.90;55.50;3.30;99493.00;;;;5053952;28;20220;-71
2022/03/23 02:11:06;;;;;;;2.90;2.60;;;4.00;55.50;3.10;99487.00;;;;5053899;28;20660;-71
2022/03/23 02:13:32;;;;;;;4.40;3.17;;;3.90;55.20;3.00;99487.00;;;;5053786;28;20206;-71
2022/03/23 02:15:59;;;;;;;3.30;2.17;;;3.80;55.50;3.00;99492.00;;;;5053745;28;20440;-71
2022/03/23 02:18:25;;;;;;;1.93;1.33;;;3.70;55.80;3.00;99489.00;;;;5053679;28;20219;-71
2022/03/23 02:20:51;;;;;;;2.77;2.57;;;3.70;56.00;3.10;99482.00;;;;5053760;28;20640;-71
2022/03/23 02:23:19;;;;;;;13.83;3.40;;;3.80;56.10;3.10;99485.00;;;;5053899;28;20241;-71
2022/03/23 02:25:50;;;;;;;3.70;2.70;;;3.80;56.30;3.20;99478.00;;;;5036330;28;20206;-71
2022/03/23 02:28:17;;;;;;;3.03;2.50;;;3.80;56.60;3.20;99489.00;;;;5053734;28;20539;-71
2022/03/23 02:30:46;;;;;;;3.13;2.90;;;3.90;56.50;3.10;99485.00;;;;5053649;28;20204;-71
2022/03/23 02:33:18;;;;;;;1.97;1.87;;;3.90;56.30;3.20;99492.00;;;;5052905;28;20199;-72
2022/03/23 02:35:45;;;;;;;1.37;1.37;;;3.90;56.60;3.20;99463.00;;;;5054284;28;20261;-73
2022/03/23 02:38:15;;;;;;;1.97;1.87;;;3.90;56.60;3.10;99480.00;;;;5053895;28;20196;-71
2022/03/23 02:40:45;;;;;;;8.60;3.00;;;3.80;56.00;3.00;99484.00;;;;5053939;28;20204;-71
2022/03/23 02:43:14;;;;;;;3.03;2.50;;;3.80;55.80;3.00;99485.00;;;;5058499;28;20215;-71
2022/03/23 02:45:41;;;;;;;3.03;2.57;;;3.80;55.90;3.00;99487.00;;;;5053802;28;20203;-71
2022/03/23 02:48:09;;;;;;;3.37;3.17;;;3.70;56.10;2.80;99480.00;;;;5053812;28;20646;-71
2022/03/23 02:50:38;;;;;;;1.53;1.50;;;3.60;55.80;2.70;99493.00;;;;5054855;28;20230;-71
2022/03/23 03:01:52;;;;;;;1.60;1.50;;;3.50;55.60;2.60;99495.00;;;;5057389;28;20287;-72
2022/03/23 03:04:21;;;;;;;3.03;2.47;;;3.40;56.30;2.60;99493.00;;;;5056966;28;20235;-72
2022/03/23 03:06:48;;;;;;;3.17;2.07;;;3.40;56.80;2.70;99481.00;;;;5060887;28;20220;-73
2022/03/23 03:11:51;;;;;;;2.77;2.57;;;3.50;57.10;2.80;99500.00;;;;5625820;22;20249;-72
2022/03/23 03:14:18;;;;;;;2.23;2.13;;;3.50;56.30;2.80;99505.00;;;;5036576;28;20304;-73
2022/03/23 03:16:44;;;;;;;2.33;2.23;;;3.60;56.20;2.70;99495.00;;;;5036553;28;20246;-72
2022/03/23 03:19:12;;;;;;;1.87;1.77;;;3.60;56.50;2.70;99492.00;;;;5036641;28;20260;-72
2022/03/23 03:21:39;;;;;;;1.77;1.67;;;3.50;57.40;2.70;99504.00;;;;5036442;28;20224;-72
2022/03/23 03:24:08;;;;;;;2.60;2.40;;;3.50;56.70;2.80;99508.00;;;;5036497;28;20342;-71
2022/03/23 03:26:34;;;;;;;2.27;2.17;;;3.60;56.80;2.70;99508.00;;;;5036453;28;20254;-72
2022/03/23 03:29:04;;;;;;;1.97;1.87;;;3.60;56.50;2.70;99503.00;;;;5036515;28;20235;-71
2022/03/23 03:31:31;;;;;;;2.83;2.60;;;3.50;56.20;2.70;99512.00;;;;5035519;28;20231;-72
2022/03/23 03:33:58;;;;;;;2.53;2.37;;;3.50;56.10;2.50;99515.00;;;;5036421;28;20285;-72
2022/03/23 03:36:25;;;;;;;3.10;2.80;;;3.30;56.40;2.50;99516.00;;;;5036260;28;20265;-71
2022/03/23 03:38:54;;;;;;;1.87;1.77;;;3.30;56.30;2.60;99516.00;;;;5036348;28;20219;-71
2022/03/23 03:41:22;;;;;;;1.60;1.57;;;3.30;56.60;2.60;99503.00;;;;5036305;28;20221;-72
2022/03/23 03:43:49;;;;;;;5.43;2.17;;;3.40;56.60;2.60;99508.00;;;;5036653;28;20213;-72
2022/03/23 03:46:18;;;;;;;3.63;3.33;;;3.30;56.60;2.70;99522.00;;;;5036271;28;20227;-72
2022/03/23 03:48:45;;;;;;;1.97;1.87;;;3.40;57.60;2.70;99481.00;;;;5036326;28;20239;-73
2022/03/23 03:51:11;;;;;;;2.20;2.10;;;3.50;56.70;2.70;99522.00;;;;5035032;28;20764;-72
2022/03/23 03:53:38;;;;;;;2.13;2.03;;;3.40;56.80;2.60;99517.00;;;;5036046;28;20211;-71
2022/03/23 03:56:06;;;;;;;1.83;1.73;;;3.40;57.00;2.60;99522.00;;;;5035911;28;20231;-72
2022/03/23 03:58:32;;;;;;;2.60;2.40;;;3.40;56.70;2.70;99513.00;;;;5035867;28;20244;-72
2022/03/23 04:00:59;;;;;;;2.90;2.03;;;3.40;57.00;2.70;99521.00;;;;5035731;28;20646;-71
2022/03/23 04:03:26;;;;;;;5.07;2.93;;;3.40;56.90;2.50;99516.00;;;;5035085;28;20519;-72
2022/03/23 04:05:55;;;;;;;3.83;3.47;;;3.30;57.20;2.70;99523.00;;;;5034868;28;20504;-72
2022/03/23 04:08:21;;;;;;;2.43;2.23;;;3.30;57.80;2.50;99524.00;;;;5035808;28;20206;-71
2022/03/23 04:10:48;;;;;;;2.17;2.03;;;3.30;57.30;2.60;99533.00;;;;5035318;28;20254;-71
2022/03/23 04:13:14;;;;;;;2.90;2.70;;;3.30;57.50;2.40;99523.00;;;;5036392;28;20283;-72
2022/03/23 04:15:41;;;;;;;1.87;1.77;;;3.30;57.50;2.40;99518.00;;;;5035928;28;20754;-73
2022/03/23 04:18:08;;;;;;;3.17;2.90;;;3.20;57.70;2.50;99531.00;;;;5035125;28;20639;-71
2022/03/23 04:20:36;;;;;;;2.37;2.07;;;3.30;58.00;2.50;99531.00;;;;5038874;28;20688;-72
2022/03/23 04:23:04;;;;;;;1.97;1.87;;;3.30;57.80;2.60;99532.00;;;;5036819;28;20215;-72
2022/03/23 04:25:31;;;;;;;1.53;1.43;;;3.30;58.00;2.50;99527.00;;;;5036773;28;20224;-72
2022/03/23 04:27:59;;;;;;;4.53;1.93;;;3.30;58.00;2.40;99519.00;;;;5035776;28;20233;-72
2022/03/23 04:30:30;;;;;;;2.80;2.57;;;3.20;57.40;2.40;99521.00;;;;5034770;28;20639;-71
2022/03/23 04:32:58;;;;;;;3.47;2.87;;;3.10;57.80;2.20;99515.00;;;;5036863;28;20279;-71
2022/03/23 04:35:28;;;;;;;1.93;1.83;;;3.00;57.90;2.30;99523.00;;;;5037187;28;20212;-71
2022/03/23 04:37:55;;;;;;;1.93;1.83;;;3.00;58.10;2.20;99520.00;;;;5036162;28;20307;-72
2022/03/23 04:40:22;;;;;;;2.07;1.97;;;3.00;58.20;2.30;99524.00;;;;5035608;28;20253;-72
2022/03/23 04:42:50;;;;;;;2.33;2.13;;;3.00;58.20;2.30;99524.00;;;;5035421;28;20224;-72
2022/03/23 04:45:17;;;;;;;2.17;2.03;;;3.00;58.50;2.30;99521.00;;;;5035420;28;20196;-71
2022/03/23 04:47:44;;;;;;;4.77;3.47;;;3.10;58.50;2.20;99527.00;;;;5035410;28;20263;-72
2022/03/23 04:50:13;;;;;;;3.47;3.17;;;3.10;58.40;2.20;99527.00;;;;5034506;28;20220;-71
2022/03/23 04:52:41;;;;;;;19.53;3.30;;;3.00;59.00;2.20;99530.00;;;;5035067;28;20272;-72
2022/03/23 04:55:11;;;;;;;2.53;2.33;;;3.00;59.10;2.20;99525.00;;;;5035072;28;20281;-72
2022/03/23 04:57:39;;;;;;;2.97;2.70;;;3.00;58.60;2.10;99523.00;;;;5034597;28;20238;-71
2022/03/23 05:00:10;;;;;;;4.83;2.80;;;3.00;58.50;2.30;99533.00;;;;5035072;28;20260;-71
2022/03/23 05:02:38;;;;;;;2.10;1.70;;;3.00;58.70;2.20;99538.00;;;;5034935;28;20676;-71
2022/03/23 05:05:06;;;;;;;2.83;2.53;;;3.00;58.20;2.20;99533.00;;;;5034217;28;20527;-71
2022/03/23 05:07:33;;;;;;;2.30;2.20;;;3.00;58.20;2.10;99552.00;;;;5034966;28;20290;-71
2022/03/23 05:09:59;;;;;;;3.73;3.40;;;2.90;58.20;2.00;99546.00;;;;5034892;28;20316;-71
2022/03/23 05:12:27;;;;;;;2.07;1.97;;;2.90;58.30;2.10;99538.00;;;;5034909;28;20275;-71
2022/03/23 05:14:57;;;;;;;2.83;2.60;;;2.90;58.50;2.20;99540.00;;;;5033790;28;20211;-72
2022/03/23 05:17:26;;;;;;;3.33;3.13;;;2.90;59.10;2.20;99541.00;;;;5034744;28;20285;-71
2022/03/23 05:19:53;;;;;;;2.30;2.20;;;2.90;58.70;2.10;99540.00;;;;5033827;28;20249;-71
2022/03/23 05:22:21;;;;;;;3.43;3.07;;;2.90;58.60;2.10;99544.00;;;;5034674;28;20551;-71
2022/03/23 05:24:48;;;;;;;2.07;1.97;;;2.90;58.80;1.90;99544.00;;;;5034811;28;20208;-71
2022/03/23 05:27:14;;;;;;;2.97;2.53;;;2.80;59.10;1.90;99550.00;;;;5034513;28;20306;-72
2022/03/23 05:29:43;;;;;;;1.63;1.53;;;2.70;59.30;2.00;99543.00;;;;5034060;28;20727;-71
2022/03/23 05:32:16;;;;;;;3.00;2.80;;;2.70;59.30;2.00;99553.00;;;;5034278;28;20667;-71
2022/03/23 05:34:43;;;;;;;2.43;2.03;;;2.80;59.20;1.90;99556.00;;;;5033753;28;20218;-71
2022/03/23 05:37:10;;;;;;;2.53;2.33;;;2.70;59.30;2.00;99540.00;;;;5034360;28;20274;-71
2022/03/23 05:39:37;;;;;;;2.27;2.13;;;2.70;59.60;2.00;99563.00;;;;5034503;28;20598;-71
2022/03/23 05:42:05;;;;;;;3.20;2.97;;;2.80;59.20;2.00;99545.00;;;;5034209;28;20736;-71
2022/03/23 05:44:35;;;;;;;3.60;2.97;;;2.80;59.60;2.00;99543.00;;;;5033293;28;20214;-71
2022/03/23 05:47:03;;;;;;;2.23;2.13;;;2.80;59.60;2.10;99545.00;;;;5034057;28;20275;-71
2022/03/23 05:49:30;;;;;;;1.67;1.60;;;2.80;59.40;2.20;99552.00;;;;5033543;28;20544;-71
2022/03/23 05:51:57;;;;;;;1.40;1.40;;;2.90;59.50;2.10;99554.00;;;;5034170;28;20210;-71
2022/03/23 05:54:24;;;;;;;3.57;3.30;;;2.90;59.10;2.20;99515.00;;;;5034392;28;20214;-71
2022/03/23 05:56:51;;;;;;;2.97;2.73;;;2.90;58.80;2.20;99552.00;;;;5034023;28;20237;-71
2022/03/23 05:59:19;;;;;;;3.77;2.33;;;2.90;58.80;2.20;99564.00;;;;5033951;28;20205;-71
2022/03/23 06:01:46;;;;;;;4.77;2.23;;;2.90;58.90;2.10;99560.00;;;;5034979;28;20227;-73
2022/03/23 06:04:13;;;;;;;2.47;2.13;;;2.90;58.70;2.10;99563.00;;;;5036983;28;20206;-71
2022/03/23 06:06:40;;;;;;;1.27;1.27;;;2.90;59.00;2.00;99563.00;;;;5036986;28;20228;-70
2022/03/23 06:09:10;;;;;;;1.60;1.50;;;2.90;59.00;2.00;99567.00;;;;5037254;28;20273;-71
2022/03/23 06:11:37;;;;;;;3.80;1.97;;;2.90;59.80;2.10;99568.00;;;;5033810;28;20205;-72
2022/03/23 06:14:06;;;;;;;3.00;2.80;;;2.90;59.00;2.10;99557.00;;;;5034066;28;20200;-72
2022/03/23 06:16:33;;;;;;;3.47;3.17;;;2.90;59.30;2.20;99573.00;;;;5033777;28;20259;-72
2022/03/23 06:19:00;;;;;;;2.07;1.97;;;3.00;59.20;2.30;99573.00;;;;5034144;28;20200;-73
2022/03/23 06:21:27;;;;;;;3.90;3.33;;;3.10;59.20;2.10;99573.00;;;;5033534;28;20544;-73
2022/03/23 06:23:56;;;;;;;2.37;2.27;;;3.00;58.50;2.20;99575.00;;;;5033985;28;20223;-71
2022/03/23 06:26:23;;;;;;;2.93;2.73;;;3.00;58.60;2.30;99585.00;;;;5036304;28;20203;-71
2022/03/23 06:28:50;;;;;;;2.67;2.57;;;3.10;58.90;2.30;99582.00;;;;5034385;28;20315;-71
2022/03/23 06:31:20;;;;;;;3.73;3.40;;;3.10;58.80;2.20;99577.00;;;;5033673;28;20199;-71
2022/03/23 06:33:47;;;;;;;2.47;2.30;;;3.10;59.20;2.20;99580.00;;;;5033649;28;20235;-71
2022/03/23 06:36:13;;;;;;;1.93;1.60;;;3.10;59.50;2.20;99572.00;;;;5032798;28;20234;-71
2022/03/23 06:38:41;;;;;;;3.87;3.47;;;3.10;60.00;2.30;99579.00;;;;5032722;28;20278;-71
2022/03/23 06:41:10;;;;;;;2.90;2.70;;;3.00;59.80;2.20;99590.00;;;;5033579;28;20207;-71
2022/03/23 06:43:36;;;;;;;4.23;3.87;;;3.10;59.70;2.20;99595.00;;;;5033573;28;20306;-71
2022/03/23 06:46:04;;;;;;;2.30;2.13;;;3.00;59.90;2.10;99596.00;;;;5032682;28;20286;-71
2022/03/23 06:48:31;;;;;;;4.40;3.73;;;3.00;59.70;2.10;99607.00;;;;5032449;28;20231;-73
2022/03/23 06:50:57;;;;;;;1.63;1.53;;;3.00;60.60;2.40;99600.00;;;;5033713;28;20528;-71
2022/03/23 06:53:24;;;;;;;3.17;2.80;;;3.10;60.90;2.50;99605.00;;;;5033314;28;20559;-72
2022/03/23 06:55:51;;;;;;;4.33;3.23;;;3.30;61.00;2.80;99593.00;;;;5034360;28;20223;-71
2022/03/23 06:58:18;;;;;;;4.60;2.33;;;3.40;59.80;2.90;99608.00;;;;5033120;28;20239;-72
2022/03/23 07:00:44;;;;;;;4.13;3.63;;;3.60;59.70;2.90;99606.00;;;;5033788;28;20208;-71
2022/03/23 07:03:11;;;;;;;3.17;2.47;;;3.70;59.10;3.00;99603.00;;;;5033286;28;20228;-72
2022/03/23 07:05:37;;;;;;;1.70;1.60;;;3.70;58.90;3.30;99612.00;;;;5032478;28;20209;-71
2022/03/23 07:10:51;;;;;;;2.07;1.97;;;4.00;58.20;3.40;99621.00;;;;5033393;28;20197;-71
2022/03/23 07:13:18;;;;;;;1.33;1.33;;;4.20;58.10;3.50;99615.00;;;;5033188;28;20227;-71
2022/03/23 07:15:46;;;;;;;2.63;2.43;;;4.20;58.40;3.70;99613.00;;;;5032113;28;20809;-71
2022/03/23 07:18:13;;;;;;;1.60;1.50;;;4.30;58.00;3.60;99622.00;;;;5037665;28;20601;-71
2022/03/23 07:20:40;;;;;;;2.57;2.37;;;4.40;58.30;3.80;99616.00;;;;5041401;28;20207;-71
2022/03/23 07:23:06;;;;;;;1.47;1.43;;;4.50;58.60;4.00;99619.00;;;;5033214;28;20290;-71
2022/03/23 07:25:33;;;;;;;1.80;1.70;;;4.70;58.40;4.20;99625.00;;;;5033089;28;20200;-71
2022/03/23 07:28:03;;;;;;;2.10;2.00;;;4.80;57.50;4.30;99626.00;;;;5032955;28;20196;-71
2022/03/23 07:30:30;;;;;;;2.20;1.93;;;5.00;57.30;4.50;99628.00;;;;5032998;28;20280;-71
2022/03/23 07:32:57;;;;;;;2.23;2.10;;;5.10;57.00;4.50;99629.00;;;;5032931;28;20633;-71
2022/03/23 07:35:23;;;;;;;3.37;3.03;;;5.30;56.70;4.70;99620.00;;;;5032847;28;20228;-71
2022/03/23 07:37:52;;;;;;;2.63;2.43;;;5.40;56.40;4.90;99610.00;;;;5034524;28;20274;-71
2022/03/23 07:40:19;;;;;;;2.20;2.10;;;5.60;55.70;5.10;99623.00;;;;5036259;28;20276;-71
2022/03/23 07:42:46;;;;;;;2.07;1.90;;;5.70;55.30;5.10;99632.00;;;;5036257;28;20193;-71
2022/03/23 07:45:14;;;;;;;1.70;1.60;;;5.80;54.80;5.30;99627.00;;;;5036320;28;20303;-71
2022/03/23 07:47:40;;;;;;;4.33;2.53;;;6.00;54.70;5.40;99635.00;;;;5036278;28;20227;-71
2022/03/23 07:50:09;;;;;;;4.23;2.63;;;6.10;53.80;5.60;99636.00;;;;5035230;28;20201;-71
2022/03/23 07:52:35;;;;;;;3.97;2.77;;;6.20;53.60;5.80;99633.00;;;;5035027;28;20295;-71
2022/03/23 07:55:02;;;;;;;2.80;2.33;;;6.40;53.40;6.00;99635.00;;;;5035991;28;20193;-71
2022/03/23 07:57:28;;;;;;;2.43;2.23;;;6.60;52.50;6.00;99635.00;;;;5035219;28;20260;-71
2022/03/23 07:59:55;;;;;;;2.77;2.57;;;6.70;52.20;6.10;99635.00;;;;5035897;28;20254;-73
2022/03/23 08:02:23;;;;;;;4.43;2.93;;;6.80;52.30;6.30;99638.00;;;;5035945;28;20218;-71
2022/03/23 08:04:52;;;;;;;3.57;3.27;;;6.90;52.00;6.40;99643.00;;;;5036345;28;20212;-72
2022/03/23 08:07:19;;;;;;;3.70;2.77;;;7.10;51.00;6.40;99638.00;;;;5036210;28;20204;-72
2022/03/23 08:09:45;;;;;;;15.27;3.57;;;7.20;50.90;6.60;99636.00;;;;5036182;28;20268;-72
2022/03/23 08:12:12;;;;;;;4.00;2.43;;;7.30;50.50;6.70;99621.00;;;;5036402;28;20199;-72
2022/03/23 08:14:39;;;;;;;2.97;2.77;;;7.40;50.10;6.80;99647.00;;;;5040300;28;20224;-72
2022/03/23 08:17:05;;;;;;;2.30;1.63;;;7.50;50.10;6.90;99640.00;;;;5037019;28;20332;-72
2022/03/23 08:19:33;;;;;;;2.33;2.23;;;7.60;49.70;7.00;99646.00;;;;5035516;28;20401;-72
2022/03/23 08:21:59;;;;;;;3.57;2.20;;;7.70;49.20;7.10;99645.00;;;;5036276;28;20247;-72
2022/03/23 08:24:26;;;;;;;3.17;2.87;;;7.80;48.30;7.40;99641.00;;;;5036288;28;20312;-71
2022/03/23 08:26:53;;;;;;;2.10;2.00;;;8.00;47.80;7.40;99636.00;;;;5035462;28;20650;-72
2022/03/23 08:29:20;;;;;;;2.33;2.13;;;8.10;46.50;7.60;99644.00;;;;5037824;28;20284;-72
2022/03/23 08:31:46;;;;;;;2.93;2.07;;;8.30;46.10;7.70;99641.00;;;;5036162;28;20247;-72
2022/03/23 08:34:14;;;;;;;2.83;2.60;;;8.40;46.20;7.80;99641.00;;;;5035569;28;20240;-72
2022/03/23 08:36:41;;;;;;;2.97;2.27;;;8.50;45.10;7.80;99640.00;;;;5035324;28;20366;-72
2022/03/23 08:39:07;;;;;;;2.17;2.03;;;8.50;45.10;7.90;99645.00;;;;5035603;28;20321;-73
2022/03/23 08:41:36;;;;;;;2.23;2.13;;;8.60;44.90;8.10;99645.00;;;;5034858;28;20284;-73
2022/03/23 08:44:04;;;;;;;1.57;1.57;;;8.70;45.10;8.20;99648.00;;;;5034638;28;20635;-72
2022/03/23 08:46:30;;;;;;;2.37;2.17;;;8.80;45.10;8.30;99644.00;;;;5035538;28;20232;-73
2022/03/23 08:48:57;;;;;;;2.17;2.00;;;9.00;44.80;8.30;99649.00;;;;5034980;28;20285;-72
2022/03/23 08:51:24;;;;;;;4.43;3.63;;;;;8.50;99644.00;;;;5035696;28;20216;-71
2022/03/23 08:53:51;;;;;;;2.93;2.53;;;9.30;43.40;8.70;99648.00;;;;5035196;28;20295;-72
2022/03/23 08:56:18;;;;;;;10.33;3.43;;;9.40;44.10;8.80;99639.00;;;;5035089;28;20290;-72
2022/03/23 08:58:49;;;;;;;2.17;2.07;;;9.50;44.00;9.10;99616.00;;;;5034994;28;20200;-72
2022/03/23 09:01:16;;;;;;;3.17;2.93;;;9.70;44.00;9.10;99626.00;;;;5035261;28;20197;-72
2022/03/23 09:03:43;;;;;;;2.53;2.43;;;9.70;42.90;9.30;99635.00;;;;5035012;28;20220;-72
2022/03/23 09:06:10;;;;;;;1.80;1.70;;;9.90;42.80;9.50;99633.00;;;;5034994;28;20662;-73
2022/03/23 09:08:37;;;;;;;2.23;2.13;;;10.10;42.30;9.50;99636.00;;;;5034909;28;20280;-72
2022/03/23 09:19:09;;;;;;;1.77;1.67;;;10.70;39.90;10.20;99610.00;;;;5036548;28;20204;-70
2022/03/23 09:21:38;;;;;;;2.10;2.00;;;10.80;39.10;10.20;99633.00;;;;5035383;28;20220;-71
2022/03/23 09:24:05;;;;;;;2.67;2.57;;;10.90;39.50;10.30;99635.00;;;;5035016;28;20223;-72
2022/03/23 09:26:32;;;;;;;4.13;3.27;;;11.00;38.60;10.40;99629.00;;;;5035600;28;20207;-72
2022/03/23 09:28:59;;;;;;;5.53;3.67;;;11.00;37.90;10.60;99618.00;;;;5036591;28;20203;-72
2022/03/23 09:31:25;;;;;;;3.00;2.80;;;11.20;37.30;10.80;99630.00;;;;5036946;28;20295;-72
2022/03/23 09:33:53;;;;;;;7.40;2.63;;;11.30;37.50;10.80;99632.00;;;;5017649;28;20207;-71
2022/03/23 09:39:05;;;;;;;3.13;2.07;;;11.40;37.60;10.90;99632.00;;;;5016238;28;20205;-71
2022/03/23 09:41:33;;;;;;;2.80;2.53;;;11.50;37.00;11.20;99636.00;;;;5034570;28;20300;-72
2022/03/23 09:44:00;;;;;;;2.87;2.67;;;11.60;37.10;11.30;99635.00;;;;5017356;28;20226;-72
2022/03/23 09:46:27;;;;;;;2.97;2.33;;;11.90;36.90;11.40;99637.00;;;;5034540;28;20216;-72
2022/03/23 09:48:55;;;;;;;4.67;2.37;;;11.90;36.70;11.40;99632.00;;;;5016867;28;20227;-71
2022/03/23 09:51:24;;;;;;;2.30;2.10;;;12.00;36.60;11.50;99625.00;;;;5034372;28;20248;-71
2022/03/23 09:53:51;;;;;;;11.17;2.37;;;12.20;36.10;11.80;99629.00;;;;5034478;28;20237;-71
2022/03/23 09:56:18;;;;;;;4.90;3.73;;;12.30;35.90;11.90;99630.00;;;;5034079;28;20232;-72
2022/03/23 09:58:44;;;;;;;3.43;3.03;;;12.40;35.80;12.00;99625.00;;;;5034197;28;20220;-71
2022/03/23 10:02:12;;;;;;;4.37;3.97;;;12.50;35.50;12.20;99629.00;;;;5033184;28;20305;-72
2022/03/23 10:05:44;;;;;;;2.80;2.60;;;12.70;34.80;12.30;99612.00;;;;4938808;28;20656;-72
2022/03/23 10:09:05;;;;;;;18.43;4.07;;;12.90;33.50;12.40;99636.00;;;;5034049;28;20211;-72
2022/03/23 10:12:55;;;;;;;3.33;3.03;;;12.90;33.60;12.60;99630.00;;;;5033885;28;20216;-74
2022/03/23 10:16:31;;;;;;;5.30;2.33;;;13.10;32.70;12.50;99630.00;;;;5033713;28;20719;-73
2022/03/23 10:18:59;;;;;;;3.60;2.73;;;13.10;31.30;12.60;99618.00;;;;5033650;28;20261;-72
2022/03/23 10:21:31;;;;;;;3.20;2.90;;;13.20;32.30;12.70;99620.00;;;;5033772;28;20242;-72
2022/03/23 10:24:34;;;;;;;1.93;1.83;;;13.20;32.10;12.90;99584.00;;;;5033840;28;20564;-73
2022/03/23 10:27:13;;;;;;;3.17;2.97;;;13.40;30.80;13.10;99623.00;;;;5016458;28;20231;-73
2022/03/23 10:29:48;;;;;;;2.60;2.43;;;13.50;31.10;13.20;99621.00;;;;5016477;28;20212;-72
2022/03/23 10:32:17;;;;;;;5.23;3.63;;;13.80;29.00;13.30;99609.00;;;;5033840;28;20228;-73
2022/03/23 10:34:48;;;;;;;6.43;3.43;;;13.80;29.60;13.50;99612.00;;;;5033687;28;20201;-73
2022/03/23 10:37:23;;;;;;;1.17;1.17;;;13.90;29.30;13.80;99609.00;;;;5033503;28;20260;-73
2022/03/23 10:39:51;;;;;;;2.87;2.30;;;14.20;27.60;14.10;99599.00;;;;5016388;28;20223;-74
2022/03/23 10:42:21;;;;;;;2.93;2.73;;;14.50;24.80;14.20;99573.00;;;;5033724;28;20732;-73
2022/03/23 10:44:48;;;;;;;2.00;1.90;;;14.70;24.10;14.40;99607.00;;;;5033644;28;20273;-73
2022/03/23 10:47:26;;;;;;;2.23;2.07;;;14.90;23.80;14.40;99600.00;;;;5016131;28;20308;-72
2022/03/23 10:49:53;;;;;;;3.00;2.67;;;14.90;23.80;14.50;99595.00;;;;5033675;28;20274;-72
2022/03/23 10:52:20;;;;;;;2.67;2.17;;;15.00;23.90;14.80;99596.00;;;;5033512;28;20830;-73
2022/03/23 10:54:56;;;;;;;2.50;2.40;;;15.20;22.60;15.20;99595.00;;;;5016254;28;20212;-73
2022/03/23 11:01:12;;;;;;;1.97;1.77;;;16.10;23.30;15.60;99583.00;;;;4951753;28;20223;-73
2022/03/23 11:03:49;;;;;;;3.83;3.50;;;16.00;23.40;15.80;99585.00;;;;5033265;28;20224;-76
2022/03/23 11:06:27;;;;;;;2.70;2.30;;;16.30;23.70;16.00;99574.00;;;;5033310;28;20258;-73
2022/03/23 11:08:53;;;;;;;2.43;2.23;;;16.40;21.70;16.20;99574.00;;;;5015815;28;20246;-71
2022/03/23 11:16:55;;;;;;;2.10;1.90;;;17.10;21.90;17.00;99574.00;;;;4982336;28;20251;-71
2022/03/23 11:19:24;;;;;;;2.17;2.07;;;17.40;22.80;17.10;99571.00;;;;5036636;28;20678;-71
2022/03/23 11:21:59;;;;;;;3.23;2.37;;;17.50;21.30;17.30;99569.00;;;;5036641;28;20208;-75
2022/03/23 11:24:28;;;;;;;2.77;1.93;;;17.70;19.70;17.40;99548.00;;;;5036528;28;20224;-72
2022/03/23 11:26:56;;;;;;;1.67;1.57;;;17.70;18.90;17.60;99547.00;;;;5036640;28;20639;-73
2022/03/23 11:29:23;;;;;;;2.03;1.83;;;17.90;18.50;17.90;99555.00;;;;5036452;28;20315;-71
2022/03/23 11:31:52;;;;;;;1.83;1.73;;;18.20;18.90;18.10;99528.00;;;;5036499;28;20212;-72
2022/03/23 11:34:22;;;;;;;1.63;1.53;;;18.50;19.10;18.50;99547.00;;;;5036380;28;20224;-71
2022/03/23 11:36:54;;;;;;;2.73;2.47;;;18.80;18.50;18.80;99545.00;;;;5036371;28;20227;-72
2022/03/23 11:39:22;;;;;;;2.37;2.10;;;19.00;18.70;19.00;99540.00;;;;5036326;28;20727;-72
2022/03/23 11:41:51;;;;;;;2.27;2.17;;;19.30;17.30;19.20;99540.00;;;;5036285;28;20239;-73
2022/03/23 11:44:21;;;;;;;2.83;2.57;;;19.40;17.30;19.20;99517.00;;;;5036179;28;20225;-75
2022/03/23 11:46:50;;;;;;;2.10;2.00;;;19.50;17.00;19.50;99535.00;;;;5018823;28;20216;-73
2022/03/23 11:49:30;;;;;;;1.67;1.57;;;19.60;16.60;19.70;99536.00;;;;5036094;28;20743;-74
2022/03/23 11:52:20;;;;;;;1.00;1.00;;;19.90;15.80;20.20;99531.00;;;;5018779;28;20269;-73
2022/03/23 11:58:05;;;;;;;1.50;1.43;;;20.50;14.60;20.50;99525.00;;;;5036042;28;20295;-75
2022/03/23 12:00:41;;;;;;;2.27;2.07;;;20.70;15.00;20.70;99527.00;;;;5035980;28;20221;-75